createdAt,value
2022-08-07T00:02:40.525Z,99151.31
2022-08-07T00:05:06.642Z,99144.47
2022-08-07T00:07:40.207Z,99149.81
2022-08-07T00:10:26.881Z,99144.59
2022-08-07T00:13:00.998Z,99144.44
2022-08-07T00:15:37.680Z,99142.06
2022-08-07T00:18:18.941Z,99154.97
2022-08-07T00:20:50.442Z,99142.16
2022-08-07T00:23:21.422Z,99146.34
2022-08-07T00:26:00.112Z,99138.38
2022-08-07T00:28:34.261Z,99140.88
2022-08-07T00:31:12.680Z,99137.91
2022-08-07T00:33:47.743Z,99133.50
2022-08-07T00:36:18.098Z,99132.31
2022-08-07T00:38:48.828Z,99131.59
2022-08-07T00:41:28.379Z,99128.97
2022-08-07T00:44:01.496Z,99129.19
2022-08-07T00:46:34.123Z,99084.94
2022-08-07T00:49:04.230Z,99122.09
2022-08-07T00:51:57.580Z,99128.34
2022-08-07T00:54:24.197Z,99130.47
2022-08-07T00:56:55.838Z,99126.59
2022-08-07T00:59:35.355Z,99129.09
2022-08-07T01:02:14.258Z,99129.09
2022-08-07T01:04:58.197Z,99124.34
2022-08-07T01:07:31.185Z,99119.34
2022-08-07T01:10:06.873Z,99129.16
2022-08-07T01:12:53.163Z,99125.69
2022-08-07T01:15:36.081Z,99113.03
2022-08-07T01:18:17.017Z,99115.16
2022-08-07T01:20:57.459Z,99100.19
2022-08-07T01:23:37.994Z,99114.06
2022-08-07T01:26:12.103Z,99111.59
2022-08-07T01:28:45.950Z,99111.00
2022-08-07T01:31:17.905Z,99113.94
2022-08-07T01:33:56.284Z,99108.28
2022-08-07T01:36:33.522Z,99117.66
2022-08-07T01:39:10.136Z,99121.06
2022-08-07T01:42:07.382Z,99105.16
2022-08-07T01:44:30.790Z,99117.50
2022-08-07T01:47:14.613Z,99117.97
2022-08-07T01:49:54.671Z,99117.03
2022-08-07T01:52:26.876Z,99110.69
2022-08-07T01:55:00.879Z,99110.75
2022-08-07T01:58:01.142Z,99116.53
2022-08-07T02:00:30.494Z,99116.41
2022-08-07T02:03:11.962Z,99121.56
2022-08-07T02:05:59.422Z,99113.75
2022-08-07T02:08:35.570Z,99112.19
2022-08-07T02:11:10.456Z,99102.78
2022-08-07T02:14:02.666Z,99110.78
2022-08-07T02:16:33.973Z,99100.97
2022-08-07T02:20:04.936Z,99099.00
2022-08-07T02:21:58.628Z,99102.47
2022-08-07T02:24:30.848Z,99098.56
2022-08-07T02:27:04.010Z,99107.41
2022-08-07T02:29:36.850Z,99111.41
2022-08-07T02:32:23.188Z,99108.09
2022-08-07T02:34:54.993Z,99108.59
2022-08-07T02:37:34.108Z,99097.94
2022-08-07T02:40:29.922Z,99115.56
2022-08-07T02:43:01.312Z,99112.84
2022-08-07T02:45:58.395Z,99116.09
2022-08-07T02:48:31.458Z,99119.84
2022-08-07T02:51:06.766Z,99104.84
2022-08-07T02:53:39.594Z,99118.50
2022-08-07T02:56:21.006Z,99111.31
2022-08-07T02:58:55.413Z,99083.44
2022-08-07T03:01:35.017Z,99118.41
2022-08-07T03:04:12.434Z,99125.97
2022-08-07T03:06:45.950Z,99053.91
2022-08-07T03:09:43.870Z,99108.97
2022-08-07T03:12:22.591Z,99124.00
2022-08-07T03:15:07.748Z,99095.75
2022-08-07T03:17:52.822Z,99130.28
2022-08-07T03:20:25.383Z,99118.94
2022-08-07T03:22:56.208Z,99131.88
2022-08-07T03:25:32.422Z,99135.13
2022-08-07T03:28:38.082Z,99132.56
2022-08-07T03:31:24.865Z,99139.44
2022-08-07T03:33:59.236Z,99140.41
2022-08-07T03:36:31.972Z,99147.81
2022-08-07T03:39:06.803Z,99141.47
2022-08-07T03:41:42.551Z,99144.56
2022-08-07T03:44:31.727Z,99163.25
2022-08-07T03:47:14.197Z,99158.56
2022-08-07T03:49:47.956Z,99147.38
2022-08-07T03:52:27.017Z,99153.72
2022-08-07T03:55:06.166Z,99134.06
2022-08-07T03:58:08.829Z,99162.03
2022-08-07T04:00:33.628Z,99162.50
2022-08-07T04:03:07.133Z,99158.09
2022-08-07T04:05:42.191Z,99159.81
2022-08-07T04:08:16.145Z,99159.63
2022-08-07T04:10:54.586Z,99163.84
2022-08-07T04:14:10.477Z,99174.13
2022-08-07T04:16:32.586Z,99169.00
2022-08-07T04:19:14.736Z,99169.44
2022-08-07T04:21:58.851Z,99174.50
2022-08-07T04:24:39.104Z,99175.78
2022-08-07T04:27:20.246Z,99171.03
2022-08-07T04:30:04.443Z,99140.28
2022-08-07T04:32:40.481Z,99180.22
2022-08-07T04:35:16.513Z,99177.63
2022-08-07T04:38:03.470Z,99176.13
2022-08-07T04:40:44.059Z,99184.44
2022-08-07T04:44:11.344Z,99189.66
2022-08-07T04:46:29.250Z,99151.75
2022-08-07T04:49:17.768Z,99183.59
2022-08-07T04:52:04.921Z,99184.84
2022-08-07T04:54:41.955Z,99192.97
2022-08-07T04:58:11.331Z,99197.25
2022-08-07T05:00:30.365Z,99193.75
2022-08-07T05:03:17.218Z,99196.75
2022-08-07T05:06:19.821Z,99190.84
2022-08-07T05:09:02.139Z,99203.06
2022-08-07T05:11:58.610Z,99204.88
2022-08-07T05:14:53.044Z,99209.63
2022-08-07T05:17:52.900Z,99204.41
2022-08-07T05:20:13.545Z,99208.25
2022-08-07T05:22:47.536Z,99213.72
2022-08-07T05:25:26.235Z,99201.38
2022-08-07T05:28:20.255Z,99217.75
2022-08-07T05:30:54.412Z,99213.47
2022-08-07T05:33:26.118Z,99186.06
2022-08-07T05:35:57.579Z,99219.19
2022-08-07T05:38:59.663Z,99221.41
2022-08-07T05:41:21.720Z,99223.31
2022-08-07T05:44:08.369Z,99221.53
2022-08-07T05:46:43.985Z,99220.72
2022-08-07T05:49:14.693Z,99236.03
2022-08-07T05:51:48.284Z,99215.22
2022-08-07T05:54:31.008Z,99220.56
2022-08-07T05:57:10.598Z,99221.84
2022-08-07T05:59:57.200Z,99223.34
2022-08-07T06:02:31.092Z,99238.28
2022-08-07T06:05:06.203Z,99239.31
2022-08-07T06:08:13.406Z,99243.53
2022-08-07T06:10:27.673Z,99244.41
2022-08-07T06:13:02.129Z,99248.34
2022-08-07T06:15:42.545Z,99242.44
2022-08-07T06:18:14.330Z,99244.31
2022-08-07T06:20:50.496Z,99237.16
2022-08-07T06:24:38.180Z,99234.84
2022-08-07T06:26:30.197Z,99233.47
2022-08-07T06:29:01.631Z,99240.63
2022-08-07T06:31:47.100Z,99239.63
2022-08-07T06:34:20.726Z,99245.28
2022-08-07T06:36:52.080Z,99244.38
2022-08-07T06:40:17.139Z,99230.59
2022-08-07T06:42:19.254Z,99231.91
2022-08-07T06:44:51.588Z,99229.38
2022-08-07T06:47:21.722Z,99229.56
2022-08-07T06:49:58.237Z,99228.38
2022-08-07T06:52:35.957Z,99211.88
2022-08-07T06:55:34.051Z,99239.31
2022-08-07T06:58:04.561Z,99239.13
2022-08-07T07:00:39.898Z,99237.13
2022-08-07T07:03:13.831Z,99240.91
2022-08-07T07:06:04.355Z,99233.78
2022-08-07T07:08:39.857Z,99248.13
2022-08-07T07:12:08.714Z,99249.50
2022-08-07T07:14:09.905Z,99247.72
2022-08-07T07:16:49.798Z,99228.78
2022-08-07T07:19:57.605Z,99213.31
2022-08-07T07:22:35.855Z,99246.69
2022-08-07T07:26:31.498Z,99252.00
2022-08-07T07:28:07.874Z,99255.03
2022-08-07T07:31:01.111Z,99243.66
2022-08-07T07:33:35.239Z,99252.88
2022-08-07T07:36:12.791Z,99254.25
2022-08-07T07:38:46.201Z,99248.56
2022-08-07T07:41:21.332Z,99248.00
2022-08-07T07:44:16.891Z,99242.34
2022-08-07T07:46:57.272Z,99254.53
2022-08-07T07:50:34.881Z,99252.69
2022-08-07T07:52:28.568Z,99247.81
2022-08-07T07:54:59.630Z,99253.22
2022-08-07T07:57:50.278Z,99250.19
2022-08-07T08:00:29.917Z,99242.31
2022-08-07T08:03:08.452Z,99238.31
2022-08-07T08:05:50.532Z,99242.97
2022-08-07T08:08:35.670Z,99246.22
2022-08-07T08:11:13.693Z,99222.38
2022-08-07T08:13:55.028Z,99229.97
2022-08-07T08:16:31.157Z,99233.03
2022-08-07T08:19:17.769Z,99225.28
2022-08-07T08:22:15.955Z,99198.00
2022-08-07T08:25:18.837Z,99229.56
2022-08-07T08:28:03.590Z,99221.88
2022-08-07T08:30:42.521Z,99232.91
2022-08-07T08:33:23.867Z,99219.31
2022-08-07T08:35:55.919Z,99235.69
2022-08-07T08:38:38.140Z,99223.88
2022-08-07T08:41:19.951Z,99205.47
2022-08-07T08:44:04.079Z,99211.03
2022-08-07T08:46:44.940Z,99228.38
2022-08-07T08:49:33.097Z,99219.63
2022-08-07T08:52:16.556Z,99222.88
2022-08-07T08:54:56.952Z,99213.28
2022-08-07T08:57:36.193Z,99209.72
2022-08-07T09:00:08.379Z,99200.34
2022-08-07T09:02:55.610Z,99196.00
2022-08-07T09:05:42.538Z,99204.50
2022-08-07T09:08:28.442Z,99190.50
2022-08-07T09:11:13.892Z,99196.25
2022-08-07T09:14:08.747Z,99196.59
2022-08-07T09:17:03.537Z,99206.81
2022-08-07T09:19:52.041Z,99201.00
2022-08-07T09:24:33.899Z,99202.34
2022-08-07T09:25:41.063Z,99201.03
2022-08-07T09:30:04.761Z,99193.56
2022-08-07T09:31:26.409Z,99195.25
2022-08-07T09:34:14.812Z,99186.69
2022-08-07T09:37:01.149Z,99197.09
2022-08-07T09:39:54.447Z,99200.84
2022-08-07T09:42:42.888Z,99197.53
2022-08-07T09:47:24.755Z,99174.94
2022-08-07T09:48:43.920Z,99189.72
2022-08-07T09:52:16.021Z,99192.97
2022-08-07T09:54:36.409Z,99180.25
2022-08-07T09:57:23.451Z,99183.59
2022-08-07T10:00:04.634Z,99178.09
2022-08-07T10:02:58.335Z,99169.34
2022-08-07T10:06:17.756Z,99165.88
2022-08-07T10:09:11.638Z,99168.41
2022-08-07T10:12:15.137Z,99160.72
2022-08-07T10:15:02.346Z,99123.53
2022-08-07T10:18:01.370Z,99124.31
2022-08-07T10:20:44.568Z,99148.59
2022-08-07T10:24:06.304Z,99149.66
2022-08-07T10:26:45.109Z,99153.25
2022-08-07T10:29:51.404Z,99140.28
2022-08-07T10:32:51.230Z,99149.94
2022-08-07T10:35:55.699Z,99154.06
2022-08-07T10:38:48.288Z,99146.69
2022-08-07T10:41:51.559Z,99145.91
2022-08-07T10:44:38.354Z,99140.44
2022-08-07T10:47:31.106Z,99146.22
2022-08-07T10:50:16.087Z,99144.88
2022-08-07T10:52:56.688Z,99141.06
2022-08-07T10:55:38.493Z,99139.38
2022-08-07T10:58:32.224Z,99126.75
2022-08-07T11:01:22.352Z,99132.25
2022-08-07T11:04:16.485Z,99127.00
2022-08-07T11:07:04.677Z,99138.50
2022-08-07T11:10:08.970Z,99140.16
2022-08-07T11:13:02.058Z,99143.16
2022-08-07T11:15:37.248Z,99135.47
2022-08-07T11:18:15.661Z,99088.94
2022-08-07T11:20:55.658Z,99135.44
2022-08-07T11:23:36.375Z,99130.75
2022-08-07T11:26:14.421Z,99123.34
2022-08-07T11:44:24.593Z,99099.75
2022-08-07T11:47:05.762Z,99089.88
2022-08-07T11:50:30.973Z,99089.63
2022-08-07T11:53:06.104Z,99084.09
2022-08-07T11:56:09.253Z,99080.47
2022-08-07T11:58:50.446Z,99079.13
2022-08-07T12:01:59.276Z,99072.78
2022-08-07T12:04:41.297Z,99076.88
2022-08-07T12:07:27.819Z,99086.28
2022-08-07T12:10:14.872Z,99075.53
2022-08-07T12:12:52.791Z,99076.09
2022-08-07T12:15:46.185Z,99062.84
2022-08-07T12:18:29.704Z,99062.25
2022-08-07T12:21:20.966Z,99062.72
2022-08-07T12:24:06.753Z,99060.81
2022-08-07T12:26:49.187Z,99087.50
2022-08-07T12:29:38.272Z,99090.91
2022-08-07T12:32:18.654Z,99113.56
2022-08-07T12:34:53.452Z,99142.69
2022-08-07T12:38:09.822Z,99151.50
2022-08-07T12:40:48.173Z,99162.41
2022-08-07T12:44:02.315Z,99182.72
2022-08-07T12:46:15.779Z,99179.69
2022-08-07T12:49:09.763Z,99187.03
2022-08-07T12:52:14.548Z,99189.09
2022-08-07T12:55:03.761Z,99202.28
2022-08-07T12:58:00.355Z,99204.63
2022-08-07T13:00:35.993Z,99218.03
2022-08-07T13:04:02.240Z,99209.72
2022-08-07T13:06:36.552Z,99205.13
2022-08-07T13:10:37.552Z,99199.88
2022-08-07T13:12:49.896Z,99206.00
2022-08-07T13:15:31.921Z,99201.72
2022-08-07T13:18:26.784Z,99193.81
2022-08-07T13:21:03.913Z,99188.47
2022-08-07T13:24:00.887Z,99188.06
2022-08-07T13:26:46.150Z,99183.09
2022-08-07T13:29:21.763Z,99196.84
2022-08-07T13:31:59.962Z,99196.56
2022-08-07T13:34:48.609Z,99187.56
2022-08-07T13:37:28.138Z,99187.00
2022-08-07T13:40:35.644Z,99184.78
2022-08-07T13:43:12.124Z,99199.09
2022-08-07T13:46:11.069Z,99190.06
2022-08-07T13:48:40.614Z,99176.81
2022-08-07T13:51:27.657Z,99188.84
2022-08-07T13:54:06.356Z,99185.59
2022-08-07T13:56:40.947Z,99188.66
2022-08-07T13:59:27.823Z,99188.66
2022-08-07T14:02:08.464Z,99197.44
2022-08-07T14:04:50.226Z,99187.31
2022-08-07T14:07:28.663Z,99197.81
2022-08-07T14:10:16.486Z,99191.88
2022-08-07T14:12:55.715Z,99188.41
2022-08-07T14:15:34.828Z,99178.59
2022-08-07T14:18:15.711Z,99191.66
2022-08-07T14:22:41.069Z,99186.81
2022-08-07T14:24:02.324Z,99169.19
2022-08-07T14:26:40.623Z,99171.66
2022-08-07T14:30:05.195Z,99190.16
2022-08-07T14:32:19.264Z,99201.38
2022-08-07T14:34:52.523Z,99193.91
2022-08-07T14:37:36.115Z,99196.59
2022-08-07T14:40:17.259Z,99198.72
2022-08-07T14:43:55.757Z,99190.22
2022-08-07T14:48:48.557Z,99192.50
2022-08-07T14:51:22.782Z,99190.22
2022-08-07T14:54:30.730Z,99191.22
2022-08-07T14:56:48.868Z,99191.22
2022-08-07T15:00:03.462Z,99180.25
2022-08-07T15:02:31.882Z,99182.41
2022-08-07T15:05:20.331Z,99187.84
2022-08-07T15:07:54.220Z,99189.34
2022-08-07T15:10:26.891Z,99188.78
2022-08-07T15:13:06.150Z,99186.06
2022-08-07T15:15:42.158Z,99184.38
2022-08-07T15:18:28.596Z,99167.56
2022-08-07T15:21:43.929Z,99186.63
2022-08-07T15:27:04.958Z,99180.84
2022-08-07T15:30:09.275Z,99186.19
2022-08-07T15:36:01.970Z,99180.78
2022-08-07T15:38:30.426Z,99174.88
2022-08-07T15:41:24.447Z,99135.63
2022-08-07T15:44:04.308Z,99181.13
2022-08-07T15:46:51.606Z,99178.38
2022-08-07T15:50:04.792Z,99162.38
2022-08-07T15:52:30.021Z,99172.78
2022-08-07T15:55:08.941Z,99177.91
2022-08-07T15:57:48.804Z,99179.03
2022-08-07T16:00:22.786Z,99183.09
2022-08-07T16:03:20.549Z,99171.91
2022-08-07T16:05:53.828Z,99176.88
2022-08-07T16:08:37.624Z,99178.16
2022-08-07T16:11:25.451Z,99178.66
2022-08-07T16:14:10.716Z,99183.88
2022-08-07T16:16:57.524Z,99176.28
2022-08-07T16:19:59.059Z,99186.72
2022-08-07T16:22:55.301Z,99184.00
2022-08-07T16:25:54.169Z,99184.50
2022-08-07T16:30:08.295Z,99190.47
2022-08-07T16:31:51.505Z,99185.13
2022-08-07T16:34:39.405Z,99187.63
2022-08-07T16:38:06.695Z,99177.09
2022-08-07T16:41:01.443Z,99176.78
2022-08-07T16:44:06.130Z,99177.75
2022-08-07T16:47:16.634Z,99163.34
2022-08-07T16:50:35.782Z,99196.00
2022-08-07T16:53:55.479Z,99207.78
2022-08-07T16:56:21.968Z,99208.44
2022-08-07T16:59:10.712Z,99206.78
2022-08-07T17:01:57.085Z,99209.44
2022-08-07T17:04:51.070Z,99206.38
2022-08-07T17:07:55.579Z,99202.47
2022-08-07T17:10:34.279Z,99206.69
2022-08-07T17:14:17.365Z,99215.06
2022-08-07T17:16:55.850Z,99216.28
2022-08-07T17:20:02.332Z,99212.38
2022-08-07T17:22:37.665Z,99218.25
2022-08-07T17:25:15.670Z,99226.22
2022-08-07T17:27:56.093Z,99224.19
2022-08-07T17:30:30.752Z,99237.88
2022-08-07T17:33:39.038Z,99228.03
2022-08-07T17:36:13.404Z,99235.88
2022-08-07T17:38:58.131Z,99232.09
2022-08-07T17:42:04.102Z,99231.03
2022-08-07T17:44:45.401Z,99240.28
2022-08-07T17:47:38.281Z,99245.31
2022-08-07T17:50:19.374Z,99249.84
2022-08-07T17:52:59.603Z,99256.25
2022-08-07T17:56:00.097Z,99279.06
2022-08-07T17:58:36.755Z,99296.34
2022-08-07T18:01:20.916Z,99319.25
2022-08-07T18:04:16.777Z,99313.75
2022-08-07T18:07:19.263Z,99305.19
2022-08-07T18:10:05.882Z,99271.66
2022-08-07T18:13:09.910Z,99264.72
2022-08-07T18:15:51.805Z,99275.63
2022-08-07T18:18:46.131Z,99283.75
2022-08-07T18:21:51.627Z,99281.53
2022-08-07T18:24:33.704Z,99291.50
2022-08-07T18:27:26.165Z,99290.38
2022-08-07T18:30:32.765Z,99299.16
2022-08-07T18:33:30.065Z,99299.06
2022-08-07T18:36:15.842Z,99307.00
2022-08-07T18:40:08.089Z,99316.56
2022-08-07T18:42:04.399Z,99302.63
2022-08-07T18:48:01.135Z,99328.66
2022-08-07T18:50:49.863Z,99342.47
2022-08-07T18:53:36.996Z,99345.03
2022-08-07T18:56:17.719Z,99354.13
2022-08-07T18:59:48.056Z,99341.88
2022-08-07T19:02:19.934Z,99354.13
2022-08-07T19:05:15.529Z,99366.75
2022-08-07T19:07:58.615Z,99349.44
2022-08-07T19:10:49.987Z,99365.25
2022-08-07T19:13:27.859Z,99362.91
2022-08-07T19:17:00.385Z,99368.97
2022-08-07T19:19:00.907Z,99361.84
2022-08-07T19:21:47.675Z,99321.28
2022-08-07T19:24:32.164Z,99365.47
2022-08-07T19:28:29.725Z,99365.91
2022-08-07T19:31:03.752Z,99369.44
2022-08-07T19:32:59.800Z,99365.91
2022-08-07T19:35:33.736Z,99365.56
2022-08-07T19:38:17.048Z,99358.22
2022-08-07T19:40:51.498Z,99356.97
2022-08-07T19:43:45.192Z,99362.28
2022-08-07T19:46:26.712Z,99370.00
2022-08-07T19:49:05.636Z,99368.78
2022-08-07T19:51:50.701Z,99380.66
2022-08-07T19:54:32.373Z,99376.72
2022-08-07T19:58:02.349Z,99372.09
2022-08-07T20:00:12.065Z,99372.28
2022-08-07T20:03:04.105Z,99371.81
2022-08-07T20:06:00.116Z,99377.25
2022-08-07T20:08:34.560Z,99373.16
2022-08-07T20:11:10.077Z,99372.75
2022-08-07T20:13:46.018Z,99372.94
2022-08-07T20:16:32.073Z,99378.97
2022-08-07T20:19:10.607Z,99385.88
2022-08-07T20:21:47.252Z,99373.59
2022-08-07T20:24:24.163Z,99380.34
2022-08-07T20:27:02.372Z,99394.63
2022-08-07T20:29:48.338Z,99397.50
2022-08-07T20:32:25.869Z,99395.44
2022-08-07T20:34:59.711Z,99375.00
2022-08-07T20:37:33.972Z,99373.34
2022-08-07T20:40:32.613Z,99388.13
2022-08-07T20:43:01.571Z,99394.22
2022-08-07T20:46:28.477Z,99400.09
2022-08-07T20:48:29.787Z,99392.56
2022-08-07T20:51:03.508Z,99405.09
2022-08-07T20:54:02.834Z,99406.78
2022-08-07T20:56:32.207Z,99398.00
2022-08-07T20:59:05.997Z,99412.47
2022-08-07T21:01:58.476Z,99413.94
2022-08-07T21:04:31.819Z,99407.69
2022-08-07T21:07:03.986Z,99405.66
2022-08-07T21:09:52.642Z,99411.09
2022-08-07T21:12:35.861Z,99404.88
2022-08-07T21:15:10.338Z,99416.56
2022-08-07T21:18:02.189Z,99411.97
2022-08-07T21:20:48.010Z,99412.34
2022-08-07T21:23:30.283Z,99410.03
2022-08-07T21:26:09.323Z,99404.59
2022-08-07T21:28:50.881Z,99410.91
2022-08-07T21:31:50.115Z,99403.75
2022-08-07T21:34:26.720Z,99405.41
2022-08-07T21:37:04.976Z,99409.81
2022-08-07T21:39:51.842Z,99417.31
2022-08-07T21:42:46.536Z,99415.59
2022-08-07T21:46:08.429Z,99424.66
2022-08-07T21:48:28.501Z,99412.25
2022-08-07T21:51:19.525Z,99417.06
2022-08-07T21:54:02.653Z,99413.09
2022-08-07T21:56:49.207Z,99408.03
2022-08-07T21:59:36.347Z,99398.88
2022-08-07T22:02:35.551Z,99408.44
2022-08-07T22:05:08.868Z,99409.50
2022-08-07T22:07:58.762Z,99414.72
2022-08-07T22:10:33.634Z,99406.41
2022-08-07T22:13:12.662Z,99408.91
2022-08-07T22:16:39.066Z,99416.44
2022-08-07T22:18:54.108Z,99407.31
2022-08-07T22:22:04.365Z,99409.81
2022-08-07T22:24:33.038Z,99409.91
2022-08-07T22:27:07.608Z,99398.47
2022-08-07T22:29:48.312Z,99409.97
2022-08-07T22:32:27.606Z,99386.56
2022-08-07T22:35:02.519Z,99408.25
2022-08-07T22:38:03.002Z,99415.75
2022-08-07T22:40:44.069Z,99412.47
2022-08-07T22:43:17.860Z,99403.69
2022-08-07T22:46:21.503Z,99404.50
2022-08-07T22:49:09.447Z,99409.38
2022-08-07T22:52:02.292Z,99406.19
2022-08-07T22:54:49.047Z,99408.25
2022-08-07T22:57:45.705Z,99405.38
2022-08-07T23:00:21.321Z,99409.94
2022-08-07T23:03:04.015Z,99404.72
2022-08-07T23:06:08.908Z,99409.75
2022-08-07T23:08:55.961Z,99400.97
2022-08-07T23:11:45.741Z,99400.38
2022-08-07T23:14:36.261Z,99404.38
2022-08-07T23:17:23.663Z,99406.88
2022-08-07T23:20:51.270Z,99400.06
2022-08-07T23:24:05.357Z,99408.22
2022-08-07T23:26:23.456Z,99409.72
2022-08-07T23:30:35.536Z,99410.75
2022-08-07T23:34:20.231Z,99414.13
2022-08-07T23:35:20.409Z,99420.38
2022-08-07T23:38:19.490Z,99421.25
2022-08-07T23:41:21.011Z,99412.50
2022-08-07T23:44:29.938Z,99415.66
2022-08-07T23:47:19.050Z,99413.38
2022-08-07T23:50:04.009Z,99402.28
2022-08-07T23:53:06.514Z,99402.88
2022-08-07T23:55:51.880Z,99401.47
2022-08-07T23:58:34.885Z,99402.66
